Main page
METAR-TAF:

METAR-TAF

Airports :

Chièvres Air Base

Chièvres, Belgium

latitude: 50-34N, longitude: 003-50E, elevation: 60 m

Current weather observation

The report was made 31 minutes ago, at 16:25 UTC
Wind 2 kt from variable directions
Temperature 15°C
Humidity 94%
Pressure 1009 hPa
Visibility 10 km or more

METAR: EBCV 231625Z AUTO VRB02KT 9999 BKN110/// 15/14 Q1009 BLU

Time: 18:56 (16:56 UTC)

Forecast

The report was made 5 hours and 15 minutes ago, at 11:41 UTC
Forecast valid from 23 at 13 UTC to 23 at 22 UTC
Wind 6 kt from the East
Visibility 10 km or more
Few clouds at a height of 10000 ft
Broken clouds at a height of 12000 ft
Becoming
from 23 at 20 UTC to 23 at 22 UTC
Wind 5 kt from the Southeast

TAF: EBCV 231141Z 2313/2322 09006KT 9999 FEW100 BKN120 BECMG 2320/2322 14005KT BY EBWM

Weather observations and forecasts of more than 4000 airports (METAR and TAF reports).

The available stations are represented by yellow and red dots on the map.

Hover mouse over dot to see the name of the station.

Then click to see weather observations and forecasts.

To change the map : click on the green buttons with a black cross to zoom in, on the green button with a dash to zoom out, or on the green arrows for adjacent maps.


METAR-TAF: